sensor_id;sensor_type;location;lat;lon;timestamp;pressure;altitude;pressure_sealevel;temperature;humidity
42727;BME280;28372;56.832;60.658;2023-07-20T00:02:17;96007.22;;;19.61;94.20
42727;BME280;28372;56.832;60.658;2023-07-20T00:05:02;96007.50;;;19.63;94.22
42727;BME280;28372;56.832;60.658;2023-07-20T00:07:30;96011.09;;;19.69;93.17
42727;BME280;28372;56.832;60.658;2023-07-20T00:09:57;96003.69;;;19.76;93.32
42727;BME280;28372;56.832;60.658;2023-07-20T00:12:26;96015.41;;;19.76;92.90
42727;BME280;28372;56.832;60.658;2023-07-20T00:14:53;96001.53;;;19.80;90.22
42727;BME280;28372;56.832;60.658;2023-07-20T00:17:21;96005.31;;;19.82;89.78
42727;BME280;28372;56.832;60.658;2023-07-20T00:19:49;95997.16;;;19.88;87.43
42727;BME280;28372;56.832;60.658;2023-07-20T00:22:17;96007.47;;;19.93;85.69
42727;BME280;28372;56.832;60.658;2023-07-20T00:24:44;96005.72;;;19.96;85.84
42727;BME280;28372;56.832;60.658;2023-07-20T00:27:12;96006.22;;;19.94;84.33
42727;BME280;28372;56.832;60.658;2023-07-20T00:29:40;96003.94;;;19.93;86.42
42727;BME280;28372;56.832;60.658;2023-07-20T00:32:08;96004.63;;;19.88;89.17
42727;BME280;28372;56.832;60.658;2023-07-20T00:34:36;95999.13;;;19.88;87.46
42727;BME280;28372;56.832;60.658;2023-07-20T00:37:04;95991.88;;;19.84;90.15
42727;BME280;28372;56.832;60.658;2023-07-20T00:39:32;95995.84;;;19.83;90.77
42727;BME280;28372;56.832;60.658;2023-07-20T00:41:59;95993.94;;;19.90;88.18
42727;BME280;28372;56.832;60.658;2023-07-20T00:44:27;95995.53;;;19.96;84.68
42727;BME280;28372;56.832;60.658;2023-07-20T00:46:55;96000.31;;;20.01;82.32
42727;BME280;28372;56.832;60.658;2023-07-20T00:49:23;95998.84;;;20.00;84.62
42727;BME280;28372;56.832;60.658;2023-07-20T00:51:52;96009.81;;;20.00;86.51
42727;BME280;28372;56.832;60.658;2023-07-20T00:54:20;96010.28;;;19.99;85.68
42727;BME280;28372;56.832;60.658;2023-07-20T00:56:49;96008.91;;;20.09;84.71
42727;BME280;28372;56.832;60.658;2023-07-20T00:59:18;96020.44;;;20.13;82.80
42727;BME280;28372;56.832;60.658;2023-07-20T01:01:45;96009.47;;;20.13;81.31
42727;BME280;28372;56.832;60.658;2023-07-20T01:04:15;96008.03;;;20.18;84.76
42727;BME280;28372;56.832;60.658;2023-07-20T01:12:08;96014.44;;;20.30;87.62
42727;BME280;28372;56.832;60.658;2023-07-20T01:14:40;96007.13;;;20.27;83.72
42727;BME280;28372;56.832;60.658;2023-07-20T01:17:07;96012.13;;;20.28;82.33
42727;BME280;28372;56.832;60.658;2023-07-20T01:19:35;96004.69;;;20.29;82.29
42727;BME280;28372;56.832;60.658;2023-07-20T01:22:10;96016.28;;;20.39;84.75
42727;BME280;28372;56.832;60.658;2023-07-20T01:28:26;96023.41;;;20.51;89.18
42727;BME280;28372;56.832;60.658;2023-07-20T01:33:46;96028.06;;;20.45;82.90
42727;BME280;28372;56.832;60.658;2023-07-20T01:36:17;96020.94;;;20.53;82.75
42727;BME280;28372;56.832;60.658;2023-07-20T01:38:46;96010.91;;;20.50;81.99
42727;BME280;28372;56.832;60.658;2023-07-20T01:41:14;96013.72;;;20.56;81.54
42727;BME280;28372;56.832;60.658;2023-07-20T01:43:43;96015.56;;;20.64;82.30
42727;BME280;28372;56.832;60.658;2023-07-20T01:46:11;96018.31;;;20.64;82.93
42727;BME280;28372;56.832;60.658;2023-07-20T01:48:38;96009.41;;;20.69;82.88
42727;BME280;28372;56.832;60.658;2023-07-20T01:51:08;96023.28;;;20.81;82.47
42727;BME280;28372;56.832;60.658;2023-07-20T01:53:36;96005.28;;;20.80;81.67
42727;BME280;28372;56.832;60.658;2023-07-20T01:56:04;96021.94;;;20.97;79.38
42727;BME280;28372;56.832;60.658;2023-07-20T01:58:31;96027.47;;;21.02;79.93
42727;BME280;28372;56.832;60.658;2023-07-20T02:01:00;96032.28;;;21.08;79.83
42727;BME280;28372;56.832;60.658;2023-07-20T02:03:29;96031.38;;;21.16;79.60
42727;BME280;28372;56.832;60.658;2023-07-20T02:05:57;96031.94;;;21.26;78.29
42727;BME280;28372;56.832;60.658;2023-07-20T02:08:26;96023.75;;;21.32;77.50
42727;BME280;28372;56.832;60.658;2023-07-20T02:10:56;96032.59;;;21.42;76.99
42727;BME280;28372;56.832;60.658;2023-07-20T02:13:24;96029.94;;;21.53;77.02
42727;BME280;28372;56.832;60.658;2023-07-20T02:15:52;96027.53;;;21.61;76.11
42727;BME280;28372;56.832;60.658;2023-07-20T02:18:21;96041.16;;;21.76;76.38
42727;BME280;28372;56.832;60.658;2023-07-20T02:20:53;96046.97;;;21.89;74.07
42727;BME280;28372;56.832;60.658;2023-07-20T02:23:21;96039.50;;;21.95;73.58
42727;BME280;28372;56.832;60.658;2023-07-20T02:25:49;96041.84;;;22.08;71.70
42727;BME280;28372;56.832;60.658;2023-07-20T02:28:17;96025.09;;;22.12;71.55
42727;BME280;28372;56.832;60.658;2023-07-20T02:30:45;96041.47;;;22.27;70.62
42727;BME280;28372;56.832;60.658;2023-07-20T02:33:13;96035.28;;;22.37;69.82
42727;BME280;28372;56.832;60.658;2023-07-20T02:35:41;96041.38;;;22.53;68.96
42727;BME280;28372;56.832;60.658;2023-07-20T02:38:09;96036.38;;;22.63;68.91
42727;BME280;28372;56.832;60.658;2023-07-20T02:40:36;96039.41;;;22.70;67.16
42727;BME280;28372;56.832;60.658;2023-07-20T02:43:04;96041.47;;;22.81;66.88
42727;BME280;28372;56.832;60.658;2023-07-20T02:45:32;96038.97;;;22.89;65.73
42727;BME280;28372;56.832;60.658;2023-07-20T02:48:00;96045.50;;;22.97;65.22
42727;BME280;28372;56.832;60.658;2023-07-20T02:50:28;96043.75;;;23.05;64.60
42727;BME280;28372;56.832;60.658;2023-07-20T02:52:56;96045.56;;;23.20;64.47
42727;BME280;28372;56.832;60.658;2023-07-20T02:55:24;96051.09;;;23.31;63.63
42727;BME280;28372;56.832;60.658;2023-07-20T02:57:51;96046.88;;;23.47;63.57
42727;BME280;28372;56.832;60.658;2023-07-20T03:00:19;96045.63;;;23.59;62.90
42727;BME280;28372;56.832;60.658;2023-07-20T03:02:47;96045.84;;;23.73;61.18
42727;BME280;28372;56.832;60.658;2023-07-20T03:05:15;96052.91;;;23.91;60.19
42727;BME280;28372;56.832;60.658;2023-07-20T03:07:44;96057.66;;;24.07;59.23
42727;BME280;28372;56.832;60.658;2023-07-20T03:10:11;96055.03;;;24.38;58.89
42727;BME280;28372;56.832;60.658;2023-07-20T03:12:40;96062.84;;;25.04;57.75
42727;BME280;28372;56.832;60.658;2023-07-20T03:15:09;96064.56;;;25.85;55.16
42727;BME280;28372;56.832;60.658;2023-07-20T03:17:37;96065.53;;;26.67;52.27
42727;BME280;28372;56.832;60.658;2023-07-20T03:20:05;96065.91;;;27.53;49.92
42727;BME280;28372;56.832;60.658;2023-07-20T03:22:37;96067.38;;;28.19;48.13
42727;BME280;28372;56.832;60.658;2023-07-20T03:25:05;96082.56;;;28.58;46.48
42727;BME280;28372;56.832;60.658;2023-07-20T03:27:33;96068.72;;;29.06;45.16
42727;BME280;28372;56.832;60.658;2023-07-20T03:30:02;96081.75;;;29.80;42.67
42727;BME280;28372;56.832;60.658;2023-07-20T03:32:33;96082.41;;;30.65;40.71
42727;BME280;28372;56.832;60.658;2023-07-20T03:35:02;96081.00;;;30.87;40.35
42727;BME280;28372;56.832;60.658;2023-07-20T03:37:31;96070.63;;;31.55;38.42
42727;BME280;28372;56.832;60.658;2023-07-20T03:39:59;96071.41;;;31.71;38.37
42727;BME280;28372;56.832;60.658;2023-07-20T03:42:28;96082.19;;;31.59;37.66
42727;BME280;28372;56.832;60.658;2023-07-20T03:44:56;96077.09;;;31.27;37.78
42727;BME280;28372;56.832;60.658;2023-07-20T03:47:24;96079.16;;;30.90;38.43
42727;BME280;28372;56.832;60.658;2023-07-20T03:49:51;96079.38;;;31.00;38.70
42727;BME280;28372;56.832;60.658;2023-07-20T03:52:19;96079.50;;;31.23;38.51
42727;BME280;28372;56.832;60.658;2023-07-20T03:54:47;96085.00;;;31.67;37.83
42727;BME280;28372;56.832;60.658;2023-07-20T03:57:15;96087.25;;;32.07;37.22
42727;BME280;28372;56.832;60.658;2023-07-20T03:59:45;96087.06;;;32.28;36.87
42727;BME280;28372;56.832;60.658;2023-07-20T04:02:13;96091.47;;;32.78;36.07
42727;BME280;28372;56.832;60.658;2023-07-20T04:04:42;96090.09;;;33.02;35.69
42727;BME280;28372;56.832;60.658;2023-07-20T04:07:10;96088.28;;;33.30;35.11
42727;BME280;28372;56.832;60.658;2023-07-20T04:09:40;96089.72;;;33.79;33.98
42727;BME280;28372;56.832;60.658;2023-07-20T04:12:08;96078.69;;;34.24;33.36
42727;BME280;28372;56.832;60.658;2023-07-20T04:14:35;96079.13;;;34.73;32.84
42727;BME280;28372;56.832;60.658;2023-07-20T04:17:03;96079.75;;;35.34;31.88
42727;BME280;28372;56.832;60.658;2023-07-20T04:19:32;96074.09;;;35.89;30.68
42727;BME280;28372;56.832;60.658;2023-07-20T04:22:00;96083.81;;;35.78;30.65
42727;BME280;28372;56.832;60.658;2023-07-20T04:24:29;96072.63;;;35.88;30.80
42727;BME280;28372;56.832;60.658;2023-07-20T04:26:57;96078.97;;;35.88;30.25
42727;BME280;28372;56.832;60.658;2023-07-20T04:29:25;96076.59;;;35.84;30.77
42727;BME280;28372;56.832;60.658;2023-07-20T04:31:53;96081.78;;;35.88;30.08
42727;BME280;28372;56.832;60.658;2023-07-20T04:34:21;96080.41;;;35.79;30.50
42727;BME280;28372;56.832;60.658;2023-07-20T04:36:49;96088.50;;;35.38;30.58
42727;BME280;28372;56.832;60.658;2023-07-20T04:39:17;96073.75;;;35.03;31.09
42727;BME280;28372;56.832;60.658;2023-07-20T04:42:02;96084.44;;;34.69;31.79
42727;BME280;28372;56.832;60.658;2023-07-20T04:44:30;96081.72;;;34.19;32.55
42727;BME280;28372;56.832;60.658;2023-07-20T04:46:59;96085.19;;;33.84;32.92
42727;BME280;28372;56.832;60.658;2023-07-20T04:49:29;96083.84;;;33.60;33.78
42727;BME280;28372;56.832;60.658;2023-07-20T04:51:57;96090.50;;;33.39;34.10
42727;BME280;28372;56.832;60.658;2023-07-20T04:54:25;96086.47;;;33.25;34.14
42727;BME280;28372;56.832;60.658;2023-07-20T04:56:54;96089.47;;;33.19;34.35
42727;BME280;28372;56.832;60.658;2023-07-20T04:59:23;96092.22;;;33.27;35.01
42727;BME280;28372;56.832;60.658;2023-07-20T05:01:51;96090.75;;;33.26;34.79
42727;BME280;28372;56.832;60.658;2023-07-20T05:04:19;96098.25;;;33.16;34.83
42727;BME280;28372;56.832;60.658;2023-07-20T05:06:49;96088.66;;;33.67;34.62
42727;BME280;28372;56.832;60.658;2023-07-20T05:09:17;96087.25;;;34.09;33.65
42727;BME280;28372;56.832;60.658;2023-07-20T05:11:45;96080.22;;;34.43;33.17
42727;BME280;28372;56.832;60.658;2023-07-20T05:14:16;96086.84;;;34.55;33.28
42727;BME280;28372;56.832;60.658;2023-07-20T05:16:45;96092.91;;;35.14;32.70
42727;BME280;28372;56.832;60.658;2023-07-20T05:19:13;96095.25;;;35.53;31.56
42727;BME280;28372;56.832;60.658;2023-07-20T05:21:41;96088.81;;;35.70;31.89
42727;BME280;28372;56.832;60.658;2023-07-20T05:24:09;96092.94;;;35.96;31.75
42727;BME280;28372;56.832;60.658;2023-07-20T05:26:37;96096.88;;;36.30;30.42
42727;BME280;28372;56.832;60.658;2023-07-20T05:29:05;96084.94;;;36.49;30.10
42727;BME280;28372;56.832;60.658;2023-07-20T05:31:33;96100.34;;;36.48;29.91
42727;BME280;28372;56.832;60.658;2023-07-20T05:34:01;96107.78;;;36.73;29.80
42727;BME280;28372;56.832;60.658;2023-07-20T05:36:29;96093.66;;;36.43;29.89
42727;BME280;28372;56.832;60.658;2023-07-20T05:38:58;96082.41;;;36.53;29.67
42727;BME280;28372;56.832;60.658;2023-07-20T05:41:26;96098.28;;;36.88;29.02
42727;BME280;28372;56.832;60.658;2023-07-20T05:43:54;96095.16;;;37.13;29.29
42727;BME280;28372;56.832;60.658;2023-07-20T05:46:21;96092.19;;;37.30;28.69
42727;BME280;28372;56.832;60.658;2023-07-20T05:48:50;96093.66;;;37.21;28.94
42727;BME280;28372;56.832;60.658;2023-07-20T05:51:18;96097.25;;;36.83;28.88
42727;BME280;28372;56.832;60.658;2023-07-20T05:53:46;96094.25;;;36.51;29.68
42727;BME280;28372;56.832;60.658;2023-07-20T05:56:14;96089.00;;;36.18;29.84
42727;BME280;28372;56.832;60.658;2023-07-20T05:58:42;96087.94;;;35.77;30.21
42727;BME280;28372;56.832;60.658;2023-07-20T06:01:10;96086.59;;;35.41;30.46
42727;BME280;28372;56.832;60.658;2023-07-20T06:03:38;96094.84;;;35.11;30.91
42727;BME280;28372;56.832;60.658;2023-07-20T06:06:06;96105.66;;;34.80;31.21
42727;BME280;28372;56.832;60.658;2023-07-20T06:08:36;96090.19;;;34.54;31.44
42727;BME280;28372;56.832;60.658;2023-07-20T06:11:04;96103.50;;;34.36;32.05
42727;BME280;28372;56.832;60.658;2023-07-20T06:13:32;96107.28;;;34.23;33.23
42727;BME280;28372;56.832;60.658;2023-07-20T06:16:00;96107.03;;;34.11;34.43
42727;BME280;28372;56.832;60.658;2023-07-20T06:18:28;96102.75;;;33.85;36.03
42727;BME280;28372;56.832;60.658;2023-07-20T06:20:56;96103.34;;;33.50;35.00
42727;BME280;28372;56.832;60.658;2023-07-20T06:23:23;96101.56;;;33.22;36.02
42727;BME280;28372;56.832;60.658;2023-07-20T06:25:51;96098.50;;;33.02;35.35
42727;BME280;28372;56.832;60.658;2023-07-20T06:28:19;96092.38;;;32.88;35.86
42727;BME280;28372;56.832;60.658;2023-07-20T06:30:48;96095.88;;;33.04;36.63
42727;BME280;28372;56.832;60.658;2023-07-20T06:33:16;96085.19;;;33.84;35.77
42727;BME280;28372;56.832;60.658;2023-07-20T06:35:44;96087.38;;;34.36;35.12
42727;BME280;28372;56.832;60.658;2023-07-20T06:38:11;96089.94;;;35.12;34.42
42727;BME280;28372;56.832;60.658;2023-07-20T06:40:42;96086.75;;;35.80;32.09
42727;BME280;28372;56.832;60.658;2023-07-20T06:43:11;96099.94;;;35.77;31.14
42727;BME280;28372;56.832;60.658;2023-07-20T06:45:41;96083.41;;;35.81;30.98
42727;BME280;28372;56.832;60.658;2023-07-20T06:48:09;96072.69;;;36.17;30.64
42727;BME280;28372;56.832;60.658;2023-07-20T06:50:38;96074.47;;;36.12;30.07
42727;BME280;28372;56.832;60.658;2023-07-20T06:53:06;96088.94;;;36.85;29.71
42727;BME280;28372;56.832;60.658;2023-07-20T06:55:34;96087.47;;;37.03;29.43
42727;BME280;28372;56.832;60.658;2023-07-20T06:58:10;96091.16;;;36.86;29.07
42727;BME280;28372;56.832;60.658;2023-07-20T07:00:38;96093.41;;;37.08;29.08
42727;BME280;28372;56.832;60.658;2023-07-20T07:03:06;96092.22;;;36.81;28.70
42727;BME280;28372;56.832;60.658;2023-07-20T07:05:38;96103.94;;;36.88;28.83
42727;BME280;28372;56.832;60.658;2023-07-20T07:08:06;96096.63;;;37.24;28.43
42727;BME280;28372;56.832;60.658;2023-07-20T07:10:35;96099.69;;;37.57;27.66
42727;BME280;28372;56.832;60.658;2023-07-20T07:13:03;96098.16;;;38.07;26.87
42727;BME280;28372;56.832;60.658;2023-07-20T07:15:32;96092.44;;;37.95;26.99
42727;BME280;28372;56.832;60.658;2023-07-20T07:18:00;96092.50;;;38.07;26.67
42727;BME280;28372;56.832;60.658;2023-07-20T07:20:28;96086.81;;;38.17;27.10
42727;BME280;28372;56.832;60.658;2023-07-20T07:22:55;96088.22;;;38.37;26.61
42727;BME280;28372;56.832;60.658;2023-07-20T07:25:24;96092.00;;;37.99;26.88
42727;BME280;28372;56.832;60.658;2023-07-20T07:27:53;96097.50;;;37.46;27.17
42727;BME280;28372;56.832;60.658;2023-07-20T07:30:21;96086.88;;;36.95;26.90
42727;BME280;28372;56.832;60.658;2023-07-20T07:32:49;96083.88;;;36.54;27.26
42727;BME280;28372;56.832;60.658;2023-07-20T07:35:18;96081.88;;;36.17;27.85
42727;BME280;28372;56.832;60.658;2023-07-20T07:37:45;96091.41;;;35.85;28.17
42727;BME280;28372;56.832;60.658;2023-07-20T07:40:35;96092.84;;;35.76;28.56
42727;BME280;28372;56.832;60.658;2023-07-20T07:43:03;96096.00;;;35.63;29.04
42727;BME280;28372;56.832;60.658;2023-07-20T07:45:34;96107.44;;;35.65;29.01
42727;BME280;28372;56.832;60.658;2023-07-20T07:48:03;96097.78;;;35.58;29.14
42727;BME280;28372;56.832;60.658;2023-07-20T07:50:32;96101.38;;;35.68;28.66
42727;BME280;28372;56.832;60.658;2023-07-20T07:53:00;96113.88;;;35.48;28.31
42727;BME280;28372;56.832;60.658;2023-07-20T07:55:28;96106.75;;;35.29;27.87
42727;BME280;28372;56.832;60.658;2023-07-20T07:57:55;96110.59;;;35.07;28.03
42727;BME280;28372;56.832;60.658;2023-07-20T08:00:23;96114.03;;;34.88;28.51
42727;BME280;28372;56.832;60.658;2023-07-20T08:02:51;96106.50;;;34.90;29.38
42727;BME280;28372;56.832;60.658;2023-07-20T08:05:19;96110.31;;;34.85;29.35
42727;BME280;28372;56.832;60.658;2023-07-20T08:07:47;96104.34;;;34.81;29.30
42727;BME280;28372;56.832;60.658;2023-07-20T08:10:15;96097.91;;;34.71;29.57
42727;BME280;28372;56.832;60.658;2023-07-20T08:12:44;96112.66;;;34.71;29.78
42727;BME280;28372;56.832;60.658;2023-07-20T08:15:12;96116.72;;;34.78;30.34
42727;BME280;28372;56.832;60.658;2023-07-20T08:17:42;96105.88;;;34.74;29.28
42727;BME280;28372;56.832;60.658;2023-07-20T08:20:13;96112.78;;;34.81;29.88
42727;BME280;28372;56.832;60.658;2023-07-20T08:22:41;96089.97;;;34.77;29.74
42727;BME280;28372;56.832;60.658;2023-07-20T08:25:09;96100.22;;;34.82;29.23
42727;BME280;28372;56.832;60.658;2023-07-20T08:27:37;96102.34;;;34.74;29.49
42727;BME280;28372;56.832;60.658;2023-07-20T08:30:07;96103.84;;;34.75;29.37
42727;BME280;28372;56.832;60.658;2023-07-20T08:32:37;96092.53;;;34.82;29.00
42727;BME280;28372;56.832;60.658;2023-07-20T08:35:06;96108.78;;;34.66;28.54
42727;BME280;28372;56.832;60.658;2023-07-20T08:37:35;96111.41;;;34.64;28.56
42727;BME280;28372;56.832;60.658;2023-07-20T08:40:03;96114.03;;;34.45;28.86
42727;BME280;28372;56.832;60.658;2023-07-20T08:42:37;96124.13;;;34.23;29.29
42727;BME280;28372;56.832;60.658;2023-07-20T08:45:08;96124.56;;;34.19;29.49
42727;BME280;28372;56.832;60.658;2023-07-20T08:47:37;96115.94;;;34.17;29.59
42727;BME280;28372;56.832;60.658;2023-07-20T08:50:07;96116.94;;;34.12;30.40
42727;BME280;28372;56.832;60.658;2023-07-20T08:52:37;96114.31;;;33.89;29.41
42727;BME280;28372;56.832;60.658;2023-07-20T08:55:05;96115.69;;;33.80;29.85
42727;BME280;28372;56.832;60.658;2023-07-20T08:57:34;96116.19;;;33.86;30.10
42727;BME280;28372;56.832;60.658;2023-07-20T09:00:04;96102.59;;;33.83;29.98
42727;BME280;28372;56.832;60.658;2023-07-20T09:02:35;96101.81;;;34.07;29.37
42727;BME280;28372;56.832;60.658;2023-07-20T09:05:08;96098.78;;;33.88;28.77
42727;BME280;28372;56.832;60.658;2023-07-20T09:07:41;96100.66;;;33.60;29.32
42727;BME280;28372;56.832;60.658;2023-07-20T09:10:10;96100.97;;;33.39;29.63
42727;BME280;28372;56.832;60.658;2023-07-20T09:12:43;96109.72;;;33.43;30.50
42727;BME280;28372;56.832;60.658;2023-07-20T09:15:13;96110.78;;;33.07;30.29
42727;BME280;28372;56.832;60.658;2023-07-20T09:17:46;96114.13;;;33.13;31.17
42727;BME280;28372;56.832;60.658;2023-07-20T09:20:16;96111.28;;;32.72;32.20
42727;BME280;28372;56.832;60.658;2023-07-20T09:22:50;96112.19;;;32.83;31.93
42727;BME280;28372;56.832;60.658;2023-07-20T09:25:20;96117.44;;;32.71;31.73
42727;BME280;28372;56.832;60.658;2023-07-20T09:27:50;96107.75;;;32.56;32.08
42727;BME280;28372;56.832;60.658;2023-07-20T09:30:19;96102.91;;;32.49;31.68
42727;BME280;28372;56.832;60.658;2023-07-20T09:32:48;96106.88;;;32.31;31.51
42727;BME280;28372;56.832;60.658;2023-07-20T09:35:22;96105.00;;;32.25;31.38
42727;BME280;28372;56.832;60.658;2023-07-20T09:38:00;96112.03;;;32.57;32.09
42727;BME280;28372;56.832;60.658;2023-07-20T09:40:37;96097.84;;;32.71;31.49
42727;BME280;28372;56.832;60.658;2023-07-20T09:43:11;96090.03;;;32.61;30.49
42727;BME280;28372;56.832;60.658;2023-07-20T09:45:43;96095.97;;;32.58;30.60
42727;BME280;28372;56.832;60.658;2023-07-20T09:48:14;96089.47;;;32.48;30.89
42727;BME280;28372;56.832;60.658;2023-07-20T09:50:51;96080.47;;;32.72;31.13
42727;BME280;28372;56.832;60.658;2023-07-20T09:53:19;96083.53;;;32.28;31.08
42727;BME280;28372;56.832;60.658;2023-07-20T09:55:48;96076.44;;;32.11;31.90
42727;BME280;28372;56.832;60.658;2023-07-20T09:58:16;96077.94;;;31.97;32.01
42727;BME280;28372;56.832;60.658;2023-07-20T10:00:45;96074.97;;;31.87;32.24
42727;BME280;28372;56.832;60.658;2023-07-20T10:03:21;96080.34;;;31.70;32.59
42727;BME280;28372;56.832;60.658;2023-07-20T10:06:07;96072.72;;;31.93;32.81
42727;BME280;28372;56.832;60.658;2023-07-20T10:08:39;96074.19;;;31.71;32.32
42727;BME280;28372;56.832;60.658;2023-07-20T10:11:12;96076.78;;;31.62;31.58
42727;BME280;28372;56.832;60.658;2023-07-20T10:13:43;96073.22;;;31.46;32.20
42727;BME280;28372;56.832;60.658;2023-07-20T10:16:22;96076.56;;;31.44;32.40
42727;BME280;28372;56.832;60.658;2023-07-20T10:21:51;96096.47;;;31.33;32.49
42727;BME280;28372;56.832;60.658;2023-07-20T10:24:26;96120.94;;;31.11;36.92
42727;BME280;28372;56.832;60.658;2023-07-20T10:26:56;96148.22;;;30.97;38.88
42727;BME280;28372;56.832;60.658;2023-07-20T10:29:24;96143.78;;;30.65;42.13
42727;BME280;28372;56.832;60.658;2023-07-20T10:31:56;96154.47;;;31.63;37.01
42727;BME280;28372;56.832;60.658;2023-07-20T10:34:24;96174.22;;;30.13;45.52
42727;BME280;28372;56.832;60.658;2023-07-20T10:36:52;96176.16;;;29.49;46.13
42727;BME280;28372;56.832;60.658;2023-07-20T10:39:26;96177.28;;;28.93;47.25
42727;BME280;28372;56.832;60.658;2023-07-20T10:42:13;96175.66;;;29.11;49.64
42727;BME280;28372;56.832;60.658;2023-07-20T10:44:41;96163.41;;;28.01;50.78
42727;BME280;28372;56.832;60.658;2023-07-20T10:47:10;96173.13;;;27.75;55.51
42727;BME280;28372;56.832;60.658;2023-07-20T10:49:59;96173.53;;;28.17;55.93
42727;BME280;28372;56.832;60.658;2023-07-20T10:52:42;96173.09;;;27.94;58.04
42727;BME280;28372;56.832;60.658;2023-07-20T10:55:11;96167.06;;;27.58;56.84
42727;BME280;28372;56.832;60.658;2023-07-20T10:57:41;96177.25;;;27.68;55.60
42727;BME280;28372;56.832;60.658;2023-07-20T11:00:12;96177.78;;;27.86;54.78
42727;BME280;28372;56.832;60.658;2023-07-20T11:02:42;96176.84;;;27.97;54.09
42727;BME280;28372;56.832;60.658;2023-07-20T11:05:32;96181.38;;;28.32;53.71
42727;BME280;28372;56.832;60.658;2023-07-20T11:08:12;96190.59;;;28.41;52.82
42727;BME280;28372;56.832;60.658;2023-07-20T11:10:40;96170.13;;;28.25;50.47
42727;BME280;28372;56.832;60.658;2023-07-20T11:18:26;96184.31;;;28.67;51.29
42727;BME280;28372;56.832;60.658;2023-07-20T11:20:54;96179.84;;;28.64;47.99
42727;BME280;28372;56.832;60.658;2023-07-20T11:23:23;96178.56;;;28.65;47.48
42727;BME280;28372;56.832;60.658;2023-07-20T11:25:50;96175.31;;;28.61;47.98
42727;BME280;28372;56.832;60.658;2023-07-20T11:28:18;96164.50;;;28.57;46.67
42727;BME280;28372;56.832;60.658;2023-07-20T11:30:51;96159.28;;;28.67;46.35
42727;BME280;28372;56.832;60.658;2023-07-20T11:33:19;96165.13;;;28.50;46.53
42727;BME280;28372;56.832;60.658;2023-07-20T11:35:49;96173.16;;;28.53;45.36
42727;BME280;28372;56.832;60.658;2023-07-20T11:38:18;96156.34;;;28.32;46.10
42727;BME280;28372;56.832;60.658;2023-07-20T11:40:46;96166.06;;;28.39;45.40
42727;BME280;28372;56.832;60.658;2023-07-20T11:43:14;96161.69;;;28.30;44.79
42727;BME280;28372;56.832;60.658;2023-07-20T11:45:45;96161.16;;;28.32;44.60
42727;BME280;28372;56.832;60.658;2023-07-20T11:48:16;96161.91;;;28.32;44.46
42727;BME280;28372;56.832;60.658;2023-07-20T11:50:44;96152.56;;;28.16;43.47
42727;BME280;28372;56.832;60.658;2023-07-20T11:53:12;96158.44;;;28.13;43.86
42727;BME280;28372;56.832;60.658;2023-07-20T11:55:41;96156.78;;;28.04;44.25
42727;BME280;28372;56.832;60.658;2023-07-20T11:58:09;96163.13;;;28.05;43.70
42727;BME280;28372;56.832;60.658;2023-07-20T12:00:38;96160.94;;;27.97;45.10
42727;BME280;28372;56.832;60.658;2023-07-20T12:03:09;96157.81;;;27.88;44.09
42727;BME280;28372;56.832;60.658;2023-07-20T12:05:40;96144.13;;;27.90;44.25
42727;BME280;28372;56.832;60.658;2023-07-20T12:08:11;96145.84;;;27.93;44.32
42727;BME280;28372;56.832;60.658;2023-07-20T12:10:39;96144.28;;;27.97;42.94
42727;BME280;28372;56.832;60.658;2023-07-20T12:13:11;96135.78;;;28.09;43.16
42727;BME280;28372;56.832;60.658;2023-07-20T12:15:39;96136.84;;;28.06;43.01
42727;BME280;28372;56.832;60.658;2023-07-20T12:18:07;96144.09;;;28.09;43.22
42727;BME280;28372;56.832;60.658;2023-07-20T12:20:37;96146.44;;;28.05;43.52
42727;BME280;28372;56.832;60.658;2023-07-20T12:23:10;96144.56;;;28.13;43.72
42727;BME280;28372;56.832;60.658;2023-07-20T12:25:40;96148.47;;;28.04;42.72
42727;BME280;28372;56.832;60.658;2023-07-20T12:28:11;96147.03;;;27.97;43.07
42727;BME280;28372;56.832;60.658;2023-07-20T12:30:41;96146.97;;;28.03;43.26
42727;BME280;28372;56.832;60.658;2023-07-20T12:33:09;96148.47;;;28.04;42.10
42727;BME280;28372;56.832;60.658;2023-07-20T12:35:39;96147.28;;;27.99;42.45
42727;BME280;28372;56.832;60.658;2023-07-20T12:38:06;96148.06;;;28.00;42.46
42727;BME280;28372;56.832;60.658;2023-07-20T12:40:34;96141.19;;;28.01;42.67
42727;BME280;28372;56.832;60.658;2023-07-20T12:43:03;96142.97;;;27.98;42.25
42727;BME280;28372;56.832;60.658;2023-07-20T12:45:32;96133.16;;;27.97;42.69
42727;BME280;28372;56.832;60.658;2023-07-20T12:47:59;96140.97;;;27.99;42.88
42727;BME280;28372;56.832;60.658;2023-07-20T12:50:27;96143.50;;;27.97;42.30
42727;BME280;28372;56.832;60.658;2023-07-20T12:52:55;96144.03;;;27.95;42.64
42727;BME280;28372;56.832;60.658;2023-07-20T12:55:23;96149.69;;;27.90;42.72
42727;BME280;28372;56.832;60.658;2023-07-20T12:57:50;96153.00;;;27.88;42.06
42727;BME280;28372;56.832;60.658;2023-07-20T13:00:18;96147.31;;;27.80;42.36
42727;BME280;28372;56.832;60.658;2023-07-20T13:02:46;96151.47;;;27.87;41.18
42727;BME280;28372;56.832;60.658;2023-07-20T13:05:14;96152.78;;;27.86;40.83
42727;BME280;28372;56.832;60.658;2023-07-20T13:07:42;96153.31;;;27.84;40.20
42727;BME280;28372;56.832;60.658;2023-07-20T13:10:13;96155.13;;;27.82;40.25
42727;BME280;28372;56.832;60.658;2023-07-20T13:12:43;96145.47;;;27.83;38.84
42727;BME280;28372;56.832;60.658;2023-07-20T13:15:10;96149.31;;;27.80;37.75
42727;BME280;28372;56.832;60.658;2023-07-20T13:17:39;96151.28;;;27.85;37.63
42727;BME280;28372;56.832;60.658;2023-07-20T13:20:09;96158.00;;;27.90;36.46
42727;BME280;28372;56.832;60.658;2023-07-20T13:22:38;96151.81;;;27.83;36.03